Time;durP1;ratioP1;P1;durP2;ratioP2;P2;SDS_P1;SDS_P2;PMS_P1;PMS_P2;Temp;Humidity;BMP_temperature;BMP_pressure;BME280_temperature;BME280_humidity;BME280_pressure;Samples;Min_cycle;Max_cycle;Signal;HPM_P1;HPM_P2
2023/07/19 00:01:07;;;;;;;8.35;3.20;;;;;;;19.90;100.00;100297.56;4961897;28;20229;-78
2023/07/19 00:03:34;;;;;;;8.13;2.88;;;;;;;19.72;100.00;100291.84;4957844;28;20229;-81
2023/07/19 00:06:03;;;;;;;6.05;2.22;;;;;;;19.74;100.00;100307.91;4960194;28;20332;-79
2023/07/19 00:08:31;;;;;;;7.35;2.72;;;;;;;19.91;100.00;100316.31;4962438;28;20229;-78
2023/07/19 00:10:58;;;;;;;6.03;2.42;;;;;;;19.98;100.00;100311.63;4957117;28;20233;-78
2023/07/19 00:13:24;;;;;;;5.40;2.40;;;;;;;20.06;100.00;100298.84;4962746;28;20586;-78
2023/07/19 00:15:51;;;;;;;9.13;3.42;;;;;;;19.98;100.00;100300.91;4957205;28;20240;-79
2023/07/19 00:18:18;;;;;;;6.65;2.85;;;;;;;19.96;100.00;100295.56;4961238;28;20225;-78
2023/07/19 00:20:44;;;;;;;12.15;3.72;;;;;;;19.78;100.00;100285.41;4960209;28;20686;-78
2023/07/19 00:23:11;;;;;;;6.80;2.60;;;;;;;19.57;100.00;100292.31;4965164;28;20225;-78
2023/07/19 00:25:38;;;;;;;11.15;3.88;;;;;;;19.40;100.00;100303.47;4960872;28;20229;-79
2023/07/19 00:28:05;;;;;;;8.27;3.05;;;;;;;19.38;100.00;100315.16;4959861;28;20608;-79
2023/07/19 00:30:32;;;;;;;8.52;3.03;;;;;;;19.23;100.00;100319.16;4964926;28;20232;-78
2023/07/19 00:32:58;;;;;;;6.90;2.45;;;;;;;19.01;100.00;100328.72;4956860;28;20237;-78
2023/07/19 00:35:25;;;;;;;6.63;2.40;;;;;;;19.26;100.00;100351.25;4962540;28;20225;-79
2023/07/19 00:37:52;;;;;;;13.98;4.18;;;;;;;19.28;100.00;100356.56;4960382;28;20228;-78
2023/07/19 00:40:20;;;;;;;8.85;3.25;;;;;;;19.36;100.00;100355.44;4960555;28;20221;-78
2023/07/19 00:42:47;;;;;;;11.20;3.80;;;;;;;19.32;100.00;100350.22;4957393;28;20696;-78
2023/07/19 00:45:14;;;;;;;8.57;3.33;;;;;;;19.24;100.00;100355.78;4961854;28;20245;-79
2023/07/19 00:47:40;;;;;;;12.43;3.75;;;;;;;19.19;100.00;100363.94;4952980;28;20229;-78
2023/07/19 00:50:08;;;;;;;6.65;2.40;;;;;;;19.03;100.00;100359.06;4965964;28;20257;-78
2023/07/19 00:52:35;;;;;;;6.20;2.28;;;;;;;19.23;100.00;100383.50;4954238;28;20233;-79
2023/07/19 00:55:02;;;;;;;7.70;2.72;;;;;;;19.16;100.00;100385.47;4950259;28;20222;-78
2023/07/19 00:57:29;;;;;;;6.18;2.42;;;;;;;19.09;100.00;100372.28;4964969;28;20233;-78
2023/07/19 00:59:56;;;;;;;9.80;3.78;;;;;;;19.23;100.00;100375.47;4953321;28;20295;-78
2023/07/19 01:02:23;;;;;;;7.65;2.90;;;;;;;19.18;100.00;100364.00;4959087;28;20225;-78
2023/07/19 01:04:49;;;;;;;11.63;3.58;;;;;;;18.92;100.00;100366.50;4957662;28;20376;-79
2023/07/19 01:07:16;;;;;;;8.02;3.15;;;;;;;18.98;100.00;100377.94;4964965;28;20276;-78
2023/07/19 01:09:43;;;;;;;28.23;10.15;;;;;;;19.01;100.00;100377.84;4956669;28;20622;-79
2023/07/19 01:12:10;;;;;;;8.23;3.13;;;;;;;18.94;100.00;100367.34;4962265;28;20289;-78
2023/07/19 01:14:37;;;;;;;8.65;3.03;;;;;;;18.99;100.00;100368.09;4958008;28;20322;-80
2023/07/19 01:17:04;;;;;;;6.05;2.38;;;;;;;19.58;100.00;100371.88;4961382;28;20693;-78
2023/07/19 01:19:30;;;;;;;10.15;3.63;;;;;;;19.91;100.00;100336.91;4974098;28;20247;-78
2023/07/19 01:21:58;;;;;;;8.25;2.78;;;;;;;19.80;100.00;100302.34;4952337;28;20807;-78
2023/07/19 01:24:24;;;;;;;8.90;2.90;;;;;;;19.84;100.00;100287.03;4965423;28;20439;-78
2023/07/19 01:26:51;;;;;;;13.15;3.85;;;;;;;19.90;100.00;100278.78;4960595;28;20620;-79
2023/07/19 01:29:18;;;;;;;7.82;2.85;;;;;;;19.91;100.00;100264.44;4961406;28;20233;-78
2023/07/19 01:31:44;;;;;;;13.13;3.85;;;;;;;19.77;100.00;100262.19;4954942;28;20229;-78
2023/07/19 01:34:11;;;;;;;8.82;2.97;;;;;;;20.14;100.00;100292.28;4966326;28;20359;-78
2023/07/19 01:36:38;;;;;;;14.85;4.63;;;;;;;20.13;100.00;100265.50;4960231;28;20328;-79
2023/07/19 01:39:04;;;;;;;8.75;3.10;;;;;;;20.16;100.00;100251.09;4959163;28;20235;-78
2023/07/19 01:41:31;;;;;;;8.07;2.47;;;;;;;20.04;100.00;100238.97;4969346;28;20236;-81
2023/07/19 01:43:58;;;;;;;7.97;2.53;;;;;;;19.99;100.00;100223.00;4955184;28;20229;-80
2023/07/19 01:46:25;;;;;;;9.43;3.55;;;;;;;19.80;100.00;100241.50;4960540;28;20236;-81
2023/07/19 01:48:52;;;;;;;31.20;6.97;;;;;;;20.01;100.00;100236.38;4959259;28;20710;-80
2023/07/19 01:51:19;;;;;;;8.15;2.60;;;;;;;20.09;100.00;100220.91;4964573;28;20231;-80
2023/07/19 01:53:46;;;;;;;13.27;4.22;;;;;;;20.00;100.00;100214.03;4960147;28;20228;-81
2023/07/19 01:56:13;;;;;;;9.23;3.03;;;;;;;19.90;100.00;100228.66;4965548;28;20229;-80
2023/07/19 01:58:40;;;;;;;17.75;5.18;;;;;;;19.81;100.00;100218.22;4959428;28;20229;-80
2023/07/19 02:01:07;;;;;;;8.80;2.95;;;;;;;19.52;100.00;100235.25;4963488;28;20235;-80
2023/07/19 02:03:34;;;;;;;8.18;2.75;;;;;;;19.25;100.00;100255.66;4962345;28;20221;-80
2023/07/19 02:06:01;;;;;;;7.07;2.38;;;;;;;19.06;100.00;100274.06;4953535;28;20308;-80
2023/07/19 02:08:28;;;;;;;8.68;2.85;;;;;;;19.09;100.00;100297.22;4962073;28;20224;-80
2023/07/19 02:10:54;;;;;;;8.48;3.00;;;;;;;19.01;100.00;100301.94;4956722;28;20248;-80
2023/07/19 02:13:21;;;;;;;8.02;2.65;;;;;;;18.89;100.00;100311.19;4964255;28;20231;-80
2023/07/19 02:15:48;;;;;;;22.77;6.70;;;;;;;18.89;100.00;100313.88;4957149;28;20271;-80
2023/07/19 02:18:16;;;;;;;11.00;3.40;;;;;;;18.92;100.00;100331.66;4958844;28;20275;-80
2023/07/19 02:20:47;;;;;;;17.23;5.22;;;;;;;18.87;100.00;100334.47;4955942;28;20241;-80
2023/07/19 02:23:15;;;;;;;10.40;3.28;;;;;;;18.76;100.00;100344.59;4964348;28;20284;-81
2023/07/19 02:25:42;;;;;;;18.50;5.32;;;;;;;18.76;100.00;100348.13;4959562;28;20232;-81
2023/07/19 02:28:10;;;;;;;10.15;3.35;;;;;;;18.80;100.00;100339.09;4962931;28;20244;-81
2023/07/19 02:30:44;;;;;;;12.00;3.88;;;;;;;18.70;100.00;100337.59;4958402;28;20236;-81
2023/07/19 02:33:11;;;;;;;9.77;4.05;;;;;;;18.77;100.00;100365.09;4962951;28;20229;-81
2023/07/19 02:35:38;;;;;;;17.38;5.32;;;;;;;18.76;100.00;100356.19;4953473;28;20321;-80
2023/07/19 02:38:05;;;;;;;7.68;2.50;;;;;;;18.64;100.00;100363.66;4952649;28;20248;-80
2023/07/19 02:40:32;;;;;;;10.75;3.42;;;;;;;18.59;100.00;100361.03;4963620;28;20221;-80
2023/07/19 02:42:59;;;;;;;12.27;4.03;;;;;;;18.59;100.00;100369.09;4966854;28;20612;-80
2023/07/19 02:45:26;;;;;;;10.45;3.42;;;;;;;18.62;100.00;100362.81;4959136;28;20228;-80
2023/07/19 02:47:53;;;;;;;20.33;5.53;;;;;;;18.65;100.00;100373.44;4963329;28;20233;-80
2023/07/19 02:50:20;;;;;;;10.30;3.13;;;;;;;18.66;100.00;100386.78;4962074;28;20229;-80
2023/07/19 02:52:47;;;;;;;20.77;5.63;;;;;;;18.69;100.00;100388.50;4957315;28;20228;-79
2023/07/19 02:55:14;;;;;;;10.00;3.03;;;;;;;18.50;100.00;100394.28;4963527;28;20239;-78
2023/07/19 02:57:41;;;;;;;12.23;3.88;;;;;;;18.40;100.00;100402.56;4956973;28;20296;-78
2023/07/19 03:00:08;;;;;;;7.07;2.30;;;;;;;18.47;100.00;100418.47;4960254;28;20229;-78
2023/07/19 03:02:35;;;;;;;9.75;3.17;;;;;;;18.39;100.00;100425.78;4955950;28;20233;-80
2023/07/19 03:05:03;;;;;;;8.77;2.90;;;;;;;18.32;100.00;100424.19;4962877;28;20260;-79
2023/07/19 03:07:31;;;;;;;8.38;2.58;;;;;;;18.18;100.00;100426.25;4955918;28;20233;-78
2023/07/19 03:09:59;;;;;;;10.38;3.22;;;;;;;18.27;100.00;100433.22;4955757;28;20292;-79
2023/07/19 03:12:25;;;;;;;10.65;3.25;;;;;;;18.07;100.00;100429.16;4963000;28;20253;-78
2023/07/19 03:14:52;;;;;;;14.30;3.97;;;;;;;18.15;100.00;100424.53;4959857;28;20236;-79
2023/07/19 03:17:19;;;;;;;10.13;3.03;;;;;;;18.05;100.00;100424.75;4961510;28;20256;-79
2023/07/19 03:19:47;;;;;;;17.92;5.20;;;;;;;18.16;100.00;100441.47;4957165;28;20229;-79
2023/07/19 03:22:14;;;;;;;7.75;2.47;;;;;;;18.16;100.00;100445.03;4962416;28;20229;-79
2023/07/19 03:24:41;;;;;;;15.35;4.75;;;;;;;18.09;100.00;100439.84;4958139;28;20228;-78
2023/07/19 03:27:08;;;;;;;7.97;2.55;;;;;;;18.12;100.00;100447.78;4962169;28;20236;-81
2023/07/19 03:29:44;;;;;;;39.85;8.23;;;;;;;18.09;100.00;100451.41;4941785;28;20225;-82
2023/07/19 03:32:11;;;;;;;8.77;2.75;;;;;;;17.95;100.00;100449.94;4931398;28;20253;-83
2023/07/19 03:34:38;;;;;;;22.50;4.82;;;;;;;17.92;100.00;100462.47;4929238;28;20229;-83
2023/07/19 03:37:05;;;;;;;8.57;2.70;;;;;;;17.87;100.00;100464.38;4924160;29;20237;-82
2023/07/19 03:39:31;;;;;;;7.75;2.38;;;;;;;17.90;100.00;100472.31;4940790;29;20232;-82
2023/07/19 03:41:58;;;;;;;8.85;2.85;;;;;;;17.77;100.00;100469.94;4938487;29;20690;-82
2023/07/19 03:44:25;;;;;;;9.23;2.92;;;;;;;17.79;100.00;100481.47;4940820;28;20225;-85
2023/07/19 03:46:52;;;;;;;44.58;9.55;;;;;;;17.78;100.00;100491.31;4930627;28;20241;-81
2023/07/19 03:49:18;;;;;;;8.20;2.80;;;;;;;17.52;100.00;100475.72;4952859;28;20245;-81
2023/07/19 03:51:45;;;;;;;36.15;7.80;;;;;;;17.47;100.00;100479.41;4943853;28;20225;-80
2023/07/19 03:54:14;;;;;;;7.00;2.22;;;;;;;17.46;100.00;100489.22;4950780;28;20233;-80
2023/07/19 03:56:41;;;;;;;41.60;8.98;;;;;;;17.46;100.00;100493.66;4946819;28;20233;-85
2023/07/19 03:59:08;;;;;;;7.35;2.35;;;;;;;17.66;100.00;100499.56;4953542;28;20749;-80
2023/07/19 04:01:36;;;;;;;8.70;2.67;;;;;;;17.71;100.00;100505.72;4941360;28;20222;-79
2023/07/19 04:04:03;;;;;;;7.85;2.67;;;;;;;17.80;100.00;100510.00;4942788;29;20234;-78
2023/07/19 04:06:30;;;;;;;10.82;3.55;;;;;;;17.79;100.00;100516.25;4940765;28;20241;-78
2023/07/19 04:08:57;;;;;;;7.68;2.53;;;;;;;17.59;100.00;100501.44;4932872;29;20241;-78
2023/07/19 04:11:24;;;;;;;8.02;2.42;;;;;;;17.74;100.00;100507.44;4945353;28;20241;-78
2023/07/19 04:13:50;;;;;;;19.20;5.28;;;;;;;17.62;100.00;100513.00;4937944;28;20237;-77
2023/07/19 04:16:17;;;;;;;7.82;2.40;;;;;;;17.69;100.00;100510.19;4945599;28;20236;-78
2023/07/19 04:18:44;;;;;;;16.58;3.95;;;;;;;17.63;100.00;100504.94;4936796;28;20629;-77
2023/07/19 04:21:11;;;;;;;9.20;2.78;;;;;;;17.76;100.00;100517.19;4941787;28;20241;-77
2023/07/19 04:23:38;;;;;;;16.10;4.28;;;;;;;17.69;100.00;100518.22;4941807;28;20226;-78
2023/07/19 04:26:08;;;;;;;11.43;3.20;;;;;;;17.60;100.00;100513.00;4944892;28;20230;-78
2023/07/19 04:28:34;;;;;;;9.68;2.97;;;;;;;17.58;100.00;100509.50;4933743;28;20229;-78
2023/07/19 04:31:01;;;;;;;6.45;2.08;;;;;;;17.64;100.00;100508.50;4942456;28;20631;-78
2023/07/19 04:33:28;;;;;;;8.68;2.58;;;;;;;17.73;100.00;100519.06;4944350;28;20238;-78
2023/07/19 04:35:54;;;;;;;10.80;2.90;;;;;;;17.69;100.00;100528.03;4938166;29;20589;-77
2023/07/19 04:38:21;;;;;;;7.40;2.28;;;;;;;17.55;100.00;100531.81;4943907;28;20241;-77
2023/07/19 04:40:48;;;;;;;41.33;7.80;;;;;;;17.71;100.00;100544.94;4927470;28;20248;-77
2023/07/19 04:43:15;;;;;;;11.23;3.15;;;;;;;17.74;100.00;100540.41;4941213;28;20262;-78
2023/07/19 04:45:44;;;;;;;42.22;8.90;;;;;;;17.77;100.00;100544.84;4937554;29;20230;-77
2023/07/19 04:48:11;;;;;;;9.25;2.67;;;;;;;17.81;100.00;100557.25;4942800;28;20234;-77
2023/07/19 04:50:38;;;;;;;19.60;5.00;;;;;;;17.82;100.00;100567.03;4926938;28;20317;-78
2023/07/19 04:53:05;;;;;;;10.15;3.63;;;;;;;17.92;100.00;100560.59;4938975;28;20245;-76
2023/07/19 04:55:31;;;;;;;7.25;2.25;;;;;;;17.99;100.00;100566.72;4944814;28;20225;-79
2023/07/19 04:57:58;;;;;;;10.38;2.97;;;;;;;17.94;100.00;100561.44;4934480;28;20237;-78
2023/07/19 05:00:27;;;;;;;8.02;2.50;;;;;;;17.95;100.00;100565.88;4936902;29;20236;-79
2023/07/19 05:02:54;;;;;;;17.42;4.07;;;;;;;18.00;100.00;100555.97;4933237;28;20304;-78
2023/07/19 05:05:20;;;;;;;8.75;2.53;;;;;;;18.09;100.00;100561.16;4943054;28;20253;-78
2023/07/19 05:07:47;;;;;;;16.00;4.40;;;;;;;18.26;100.00;100576.03;4928692;29;20242;-78
2023/07/19 05:10:16;;;;;;;9.48;2.88;;;;;;;18.31;100.00;100569.66;4934279;29;20227;-78
2023/07/19 05:12:43;;;;;;;13.10;3.80;;;;;;;18.37;100.00;100566.84;4917172;29;20238;-80
2023/07/19 05:15:10;;;;;;;9.38;3.20;;;;;;;18.32;100.00;100574.09;4951638;28;20252;-80
2023/07/19 05:17:36;;;;;;;10.38;3.13;;;;;;;18.36;100.00;100567.78;4942745;28;20237;-79
2023/07/19 05:20:05;;;;;;;6.95;2.08;;;;;;;18.33;100.00;100561.59;4948853;28;20230;-78
2023/07/19 05:22:32;;;;;;;9.25;2.90;;;;;;;18.33;100.00;100562.47;4950022;28;20301;-79
2023/07/19 05:24:58;;;;;;;10.35;3.33;;;;;;;18.43;100.00;100572.09;4942199;29;20234;-78
2023/07/19 05:27:25;;;;;;;7.90;2.20;;;;;;;18.60;100.00;100577.09;4947106;28;20236;-79
2023/07/19 05:29:52;;;;;;;20.52;5.07;;;;;;;18.64;100.00;100584.16;4950893;28;20244;-80
2023/07/19 05:32:19;;;;;;;8.82;2.67;;;;;;;18.70;100.00;100586.72;4942582;29;20225;-78
2023/07/19 05:34:49;;;;;;;14.30;4.28;;;;;;;18.80;100.00;100571.31;4942928;29;20229;-79
2023/07/19 05:37:16;;;;;;;7.72;2.22;;;;;;;18.93;100.00;100580.84;4945374;28;20240;-79
2023/07/19 05:39:42;;;;;;;14.65;4.28;;;;;;;19.10;100.00;100585.81;4943543;28;20226;-77
2023/07/19 05:42:09;;;;;;;8.80;2.53;;;;;;;19.17;100.00;100577.59;4941851;28;20230;-79
2023/07/19 05:44:36;;;;;;;8.43;2.35;;;;;;;19.30;100.00;100582.66;4936103;29;20358;-78
2023/07/19 05:47:03;;;;;;;7.85;2.28;;;;;;;19.32;100.00;100576.34;4949218;28;20245;-77
2023/07/19 05:49:29;;;;;;;9.40;2.75;;;;;;;19.42;100.00;100571.63;4945218;28;20230;-82
2023/07/19 05:51:56;;;;;;;9.13;2.65;;;;;;;19.61;100.00;100569.41;4943568;28;20241;-75
2023/07/19 05:54:23;;;;;;;10.10;3.20;;;;;;;19.73;100.00;100566.41;4935603;28;20234;-73
2023/07/19 05:56:50;;;;;;;18.05;4.45;;;;;;;19.94;100.00;100559.59;4937466;28;20241;-74
2023/07/19 05:59:16;;;;;;;8.73;2.55;;;;;;;20.13;100.00;100542.94;4942850;28;20595;-74
2023/07/19 06:01:43;;;;;;;15.98;4.13;;;;;;;20.36;100.00;100536.00;4938870;28;20233;-73
2023/07/19 06:04:11;;;;;;;11.15;3.22;;;;;;;20.52;100.00;100515.84;4933350;29;20310;-74
2023/07/19 06:06:38;;;;;;;12.95;3.40;;;;;;;20.46;100.00;100473.06;4930967;28;20245;-74
2023/07/19 06:09:05;;;;;;;8.45;2.38;;;;;;;20.60;100.00;100457.38;4943587;29;20229;-74
2023/07/19 06:11:33;;;;;;;8.18;2.67;;;;;;;20.88;100.00;100461.91;4940642;29;20233;-74
2023/07/19 06:14:00;;;;;;;7.72;2.53;;;;;;;20.98;100.00;100440.03;4934833;29;20245;-74
2023/07/19 06:16:26;;;;;;;15.05;3.53;;;;;;;21.13;100.00;100435.06;4931589;29;20234;-74
2023/07/19 06:18:53;;;;;;;16.80;4.25;;;;;;;21.26;100.00;100418.47;4941453;28;20332;-74
2023/07/19 06:21:23;;;;;;;6.13;2.05;;;;;;;21.26;100.00;100394.28;4925596;29;20236;-74
2023/07/19 06:23:50;;;;;;;13.57;3.90;;;;;;;21.46;100.00;100381.91;4945451;28;20241;-74
2023/07/19 06:26:17;;;;;;;8.80;3.05;;;;;;;21.55;100.00;100349.28;4926777;29;20245;-74
2023/07/19 06:28:43;;;;;;;12.13;3.83;;;;;;;21.72;100.00;100349.53;4935991;28;20237;-74
2023/07/19 06:31:10;;;;;;;6.13;2.13;;;;;;;21.90;100.00;100335.38;4941609;29;20244;-75
2023/07/19 06:33:37;;;;;;;7.63;2.33;;;;;;;21.58;100.00;100293.53;4938851;28;20226;-73
2023/07/19 06:36:03;;;;;;;6.32;2.15;;;;;;;21.79;100.00;100293.66;4943337;28;20222;-73
2023/07/19 06:38:30;;;;;;;7.70;2.63;;;;;;;22.07;100.00;100321.25;4941988;28;20229;-74
2023/07/19 06:41:03;;;;;;;5.60;1.92;;;;;;;22.26;100.00;100314.22;4938751;29;20245;-74
2023/07/19 06:43:30;;;;;;;6.72;2.15;;;;;;;22.38;100.00;100307.47;4932541;29;20222;-74
2023/07/19 06:45:56;;;;;;;8.43;3.03;;;;;;;22.50;100.00;100255.75;4936823;29;20253;-74
2023/07/19 06:48:23;;;;;;;6.07;2.10;;;;;;;22.86;100.00;100268.59;4928158;28;20714;-74
2023/07/19 06:50:50;;;;;;;14.27;3.70;;;;;;;22.71;100.00;100223.41;4937649;29;20236;-74
2023/07/19 06:53:17;;;;;;;8.68;2.90;;;;;;;22.62;100.00;100208.50;4941189;28;20241;-74
2023/07/19 06:55:44;;;;;;;14.07;3.72;;;;;;;23.02;100.00;100226.50;4917842;29;20241;-74
2023/07/19 06:58:10;;;;;;;6.85;2.30;;;;;;;23.28;100.00;100218.09;4946223;28;20236;-74
2023/07/19 07:00:37;;;;;;;9.30;2.75;;;;;;;23.12;100.00;100189.19;4937290;28;20713;-74
2023/07/19 07:03:04;;;;;;;7.85;2.75;;;;;;;23.30;100.00;100170.31;4943638;28;20230;-74
2023/07/19 07:05:32;;;;;;;6.78;2.10;;;;;;;23.46;100.00;100154.31;4942608;28;20276;-74
2023/07/19 07:07:58;;;;;;;7.88;2.38;;;;;;;23.67;100.00;100173.13;4925900;28;20236;-74
2023/07/19 07:10:25;;;;;;;8.57;2.78;;;;;;;23.81;100.00;100162.53;4939576;29;20736;-75
2023/07/19 07:12:52;;;;;;;14.15;4.18;;;;;;;24.22;100.00;100149.63;4936004;28;20253;-75
2023/07/19 07:15:18;;;;;;;8.45;2.60;;;;;;;24.44;100.00;100125.97;4943574;28;20308;-74
2023/07/19 07:17:47;;;;;;;17.85;4.90;;;;;;;24.27;100.00;100088.13;4935717;28;20241;-74
2023/07/19 07:20:14;;;;;;;8.23;2.63;;;;;;;24.24;100.00;100064.81;4938434;28;20230;-74
2023/07/19 07:22:41;;;;;;;11.80;3.28;;;;;;;24.45;100.00;100068.25;4913235;29;20561;-74
2023/07/19 07:25:08;;;;;;;9.32;3.30;;;;;;;24.40;100.00;100045.13;4927944;28;20347;-74
2023/07/19 07:27:35;;;;;;;8.65;2.50;;;;;;;24.86;100.00;100054.31;4933344;28;20233;-73
2023/07/19 07:30:02;;;;;;;6.57;2.08;;;;;;;24.82;100.00;99993.25;4924787;28;20230;-74
2023/07/19 07:32:29;;;;;;;8.30;2.42;;;;;;;24.72;100.00;99921.72;4938985;29;20292;-75
2023/07/19 07:34:55;;;;;;;7.00;2.17;;;;;;;24.72;100.00;99913.59;4940131;29;20241;-75
2023/07/19 07:37:22;;;;;;;6.53;2.33;;;;;;;24.87;100.00;99915.41;4942082;28;20241;-74
2023/07/19 07:39:49;;;;;;;14.35;4.07;;;;;;;25.09;100.00;99909.66;4936415;28;20237;-75
2023/07/19 07:42:15;;;;;;;7.60;2.50;;;;;;;24.92;100.00;99861.91;4932827;28;20233;-74
2023/07/19 07:44:42;;;;;;;10.93;3.53;;;;;;;25.33;100.00;99872.13;4938232;28;20226;-74
2023/07/19 07:47:11;;;;;;;9.40;3.10;;;;;;;25.36;100.00;99858.41;4941195;28;20317;-75
2023/07/19 07:49:38;;;;;;;9.05;2.70;;;;;;;25.77;100.00;99861.28;4933918;28;20224;-74
2023/07/19 07:52:05;;;;;;;8.27;2.47;;;;;;;25.48;100.00;99752.94;4945336;28;20229;-75
2023/07/19 07:54:32;;;;;;;8.95;2.83;;;;;;;25.64;100.00;99744.72;4943810;28;20232;-74
2023/07/19 07:57:00;;;;;;;7.43;2.10;;;;;;;26.00;100.00;99754.16;4940859;28;20229;-75
2023/07/19 07:59:26;;;;;;;9.00;2.72;;;;;;;26.29;100.00;99769.41;4940123;28;20225;-74
2023/07/19 08:01:53;;;;;;;11.45;2.85;;;;;;;26.21;100.00;99704.00;4938291;28;20225;-75
2023/07/19 08:04:20;;;;;;;8.63;2.58;;;;;;;26.36;100.00;99696.72;4949838;28;20232;-75
2023/07/19 08:06:46;;;;;;;14.70;4.10;;;;;;;26.26;100.00;99628.69;4938352;28;20243;-75
2023/07/19 08:09:13;;;;;;;7.20;2.20;;;;;;;26.57;100.00;99621.16;4948621;28;20732;-75
2023/07/19 08:11:40;;;;;;;13.15;3.60;;;;;;;26.99;100.00;99679.72;4932295;29;20312;-75
2023/07/19 08:14:09;;;;;;;8.90;2.45;;;;;;;27.05;100.00;99600.56;4930006;28;20234;-75
2023/07/19 08:16:36;;;;;;;11.98;3.65;;;;;;;27.02;100.00;99588.09;4939005;28;20686;-75
2023/07/19 08:19:02;;;;;;;7.97;2.45;;;;;;;26.73;100.00;99497.06;4942652;28;20311;-75
2023/07/19 08:21:29;;;;;;;6.78;2.28;;;;;;;26.96;100.00;99546.94;4937622;29;20233;-75
2023/07/19 08:24:03;;;;;;;8.32;2.65;;;;;;;27.26;100.00;99539.28;4940596;28;20256;-75
2023/07/19 08:26:30;;;;;;;10.70;2.97;;;;;;;27.05;100.00;99449.47;4943120;28;20239;-75
2023/07/19 08:28:57;;;;;;;7.00;2.15;;;;;;;26.98;100.00;99436.47;4939417;29;20623;-75
2023/07/19 08:31:24;;;;;;;7.53;2.22;;;;;;;27.52;100.00;99493.94;4912461;28;20697;-75
2023/07/19 08:33:53;;;;;;;15.68;4.15;;;;;;;27.51;98.05;99401.72;4939222;28;20236;-75
2023/07/19 08:36:20;;;;;;;9.05;2.55;;;;;;;27.69;95.59;99370.44;4946740;28;20716;-74
2023/07/19 08:38:47;;;;;;;14.95;3.78;;;;;;;27.60;96.85;99361.16;4937423;28;20717;-75
2023/07/19 08:41:17;;;;;;;8.43;2.55;;;;;;;27.91;98.58;99394.06;4942065;28;20315;-75
2023/07/19 08:43:45;;;;;;;11.35;3.72;;;;;;;28.03;94.54;99342.31;4920387;29;20730;-74
2023/07/19 08:46:14;;;;;;;8.40;2.53;;;;;;;28.68;84.46;99283.56;4919276;29;20288;-75
2023/07/19 08:48:45;;;;;;;14.60;3.63;;;;;;;28.08;84.48;99183.44;4933537;28;20245;-75
2023/07/19 08:51:13;;;;;;;7.32;2.25;;;;;;;28.31;86.42;99215.91;4941206;28;20225;-75
2023/07/19 08:53:39;;;;;;;10.38;3.15;;;;;;;28.35;79.70;99124.94;4941796;28;20229;-75
2023/07/19 08:56:06;;;;;;;8.82;2.67;;;;;;;28.71;76.77;99106.50;4927730;29;20232;-75
2023/07/19 08:58:39;;;;;;;8.35;2.55;;;;;;;28.92;76.89;99120.97;4924268;29;20245;-76
2023/07/19 09:01:07;;;;;;;8.05;2.33;;;;;;;29.15;76.31;99109.91;4923461;28;20233;-75
2023/07/19 09:03:39;;;;;;;7.90;2.28;;;;;;;28.89;76.44;99058.66;4954916;28;20229;-75
2023/07/19 09:06:07;;;;;;;8.10;2.20;;;;;;;29.50;79.59;99158.53;4940822;28;20277;-75
2023/07/19 09:08:40;;;;;;;8.32;2.50;;;;;;;29.34;75.09;99049.22;4943737;28;20248;-75
2023/07/19 09:11:10;;;;;;;8.80;2.60;;;;;;;29.65;69.74;98999.16;4944594;28;20248;-76
2023/07/19 09:13:37;;;;;;;8.68;2.42;;;;;;;29.43;73.45;98985.78;4948358;28;20235;-75
2023/07/19 09:16:06;;;;;;;10.32;3.00;;;;;;;29.16;70.22;98891.13;4946989;28;20248;-75
2023/07/19 09:18:37;;;;;;;6.93;2.05;;;;;;;29.29;66.88;98850.88;4945282;28;20233;-76
2023/07/19 09:21:05;;;;;;;9.65;2.55;;;;;;;29.10;73.19;98881.69;4927990;28;20225;-76
2023/07/19 09:23:36;;;;;;;7.20;2.20;;;;;;;29.84;75.07;99001.03;4943918;28;20229;-75
2023/07/19 09:26:05;;;;;;;9.05;2.65;;;;;;;29.84;69.80;98916.56;4934966;28;20225;-75
2023/07/19 09:31:11;;;;;;;7.45;2.08;;;;;;;29.70;68.04;98827.94;4920264;28;20226;-84
2023/07/19 09:33:55;;;;;;;29.67;6.70;;;;;;;29.76;67.21;98804.69;4934285;29;20237;-81
2023/07/19 09:36:22;;;;;;;5.03;1.67;;;;;;;30.14;69.77;98889.16;4930549;28;20233;-80
2023/07/19 09:38:51;;;;;;;19.23;5.03;;;;;;;30.45;68.41;98880.72;4939841;28;20240;-80
2023/07/19 09:41:18;;;;;;;7.25;2.20;;;;;;;30.06;65.69;98774.53;4960101;28;20312;-83
2023/07/19 09:43:47;;;;;;;13.32;3.80;;;;;;;30.16;64.43;98761.72;4938170;28;20230;-80
2023/07/19 09:46:14;;;;;;;8.73;3.05;;;;;;;30.18;58.08;98667.00;4952538;28;20717;-80
2023/07/19 09:48:40;;;;;;;12.15;3.58;;;;;;;30.35;56.65;98640.78;4949456;28;20260;-81
2023/07/19 09:51:08;;;;;;;6.15;1.88;;;;;;;31.08;60.82;98779.81;4968558;28;20228;-80
2023/07/19 09:53:37;;;;;;;5.82;1.88;;;;;;;30.60;55.30;98587.34;4960329;28;20233;-80
2023/07/19 09:56:04;;;;;;;5.40;1.83;;;;;;;30.81;58.55;98669.72;4946480;28;20269;-81
2023/07/19 09:58:31;;;;;;;9.50;2.80;;;;;;;30.88;58.19;98661.75;4964773;28;20240;-79
2023/07/19 10:00:58;;;;;;;6.43;2.00;;;;;;;30.95;57.61;98649.19;4942500;28;20239;-80
2023/07/19 10:03:25;;;;;;;9.10;2.78;;;;;;;31.48;51.66;98594.47;4952758;28;20235;-79
2023/07/19 10:05:58;;;;;;;20.98;5.32;;;;;;;31.14;51.09;98512.50;4952619;28;20272;-81
2023/07/19 10:08:25;;;;;;;7.95;2.45;;;;;;;30.86;57.38;98582.75;4948306;28;20237;-78
2023/07/19 10:10:58;;;;;;;8.77;2.60;;;;;;;30.47;53.73;98472.28;4948030;28;20252;-83
2023/07/19 10:13:32;;;;;;;6.63;1.88;;;;;;;30.85;54.01;98522.88;4948701;28;20232;-83
2023/07/19 10:15:59;;;;;;;6.53;2.13;;;;;;;31.29;51.44;98523.69;4933424;28;20260;-81
2023/07/19 10:18:29;;;;;;;7.18;2.08;;;;;;;30.86;53.68;98509.06;4942888;28;20233;-83
2023/07/19 10:21:05;;;;;;;7.95;2.20;;;;;;;30.99;50.79;98480.47;4937679;28;20239;-82
2023/07/19 10:23:34;;;;;;;7.30;2.35;;;;;;;30.57;49.94;98380.31;4939497;28;20227;-82
2023/07/19 10:26:09;;;;;;;5.85;1.80;;;;;;;31.39;48.40;98461.59;4944543;28;20236;-82
2023/07/19 10:28:38;;;;;;;6.43;1.92;;;;;;;31.46;45.58;98369.78;4933779;28;20233;-82
2023/07/19 10:31:07;;;;;;;6.57;2.03;;;;;;;31.48;45.44;98348.59;4945589;28;20593;-83
2023/07/19 10:33:54;;;;;;;23.52;6.15;;;;;;;31.55;44.40;98310.53;4941230;28;20634;-83
2023/07/19 10:36:22;;;;;;;7.50;2.25;;;;;;;30.73;46.69;98263.09;4954565;28;20225;-83
2023/07/19 10:38:49;;;;;;;10.68;2.78;;;;;;;30.66;44.80;98193.00;4942130;28;20233;-83
2023/07/19 10:41:19;;;;;;;5.82;1.80;;;;;;;30.46;44.79;98165.13;4951886;28;20260;-81
2023/07/19 10:43:46;;;;;;;23.40;5.15;;;;;;;30.95;45.55;98258.03;4938786;28;20248;-84
2023/07/19 10:46:18;;;;;;;7.40;2.17;;;;;;;31.17;44.81;98269.16;4940475;28;20229;-84
2023/07/19 10:48:49;;;;;;;29.35;6.35;;;;;;;31.15;45.31;98263.03;4936948;28;20237;-84
2023/07/19 10:51:17;;;;;;;7.88;2.50;;;;;;;31.45;46.10;98320.78;4938571;28;20245;-84
2023/07/19 10:53:47;;;;;;;43.53;9.93;;;;;;;31.20;44.52;98227.88;4944771;28;20229;-81
2023/07/19 10:56:18;;;;;;;9.40;2.83;;;;;;;31.66;48.70;98405.81;4950330;28;20287;-78
2023/07/19 10:58:46;;;;;;;43.75;10.15;;;;;;;31.91;45.66;98353.94;4942210;28;20292;-83
2023/07/19 11:01:13;;;;;;;7.50;2.30;;;;;;;32.22;46.53;98408.75;4962987;28;20301;-81
2023/07/19 11:03:44;;;;;;;30.95;7.00;;;;;;;32.51;46.72;98427.38;4942305;28;20296;-83
2023/07/19 11:06:11;;;;;;;5.40;1.88;;;;;;;32.33;43.68;98304.50;4948393;28;20215;-80
2023/07/19 11:08:38;;;;;;;20.30;4.88;;;;;;;32.07;42.55;98212.59;4944417;28;20324;-81
2023/07/19 11:11:06;;;;;;;7.05;2.45;;;;;;;31.85;43.66;98201.56;4943809;28;20284;-81
2023/07/19 11:13:34;;;;;;;5.53;1.98;;;;;;;31.78;46.23;98267.00;4947761;28;20221;-81
2023/07/19 11:16:01;;;;;;;5.80;2.20;;;;;;;31.80;45.55;98257.59;4939409;28;20237;-81
2023/07/19 11:18:30;;;;;;;6.72;2.40;;;;;;;32.15;46.96;98348.44;4945336;28;20224;-81
2023/07/19 11:20:58;;;;;;;5.32;1.88;;;;;;;32.14;45.80;98330.31;4931181;28;21311;-80
2023/07/19 11:23:26;;;;;;;6.38;2.25;;;;;;;32.84;45.42;98411.78;4956447;28;20233;-82